Hauptseite
METAR-TAF:

METAR-TAF

Flughäfen :

Sussex Airport

Sussex, New Jersey, Vereinigte Staaten

Breite: 41-12-01N, Länge: 074-37-23W, Höhe: 128 m

Beobachtung

Neuester Wetterbericht von vor 20 Minuten, um 23:53 UTC
Wind 3 kt aus unterschiedlichen Richtungen
Temperatur -1°C
Luftfeuchtigkeit 54%
Luftdruck 1027 hPa
Sichtweite: 16.1 km
Himmel klar

METAR: KFWN 112353Z AUTO VRB03KT 10SM CLR M01/M09 A3033 RMK AO2 SLP274 60000 T10061089 10011 21006 53030

Zeit: 19:13 (00:13 UTC)


TAF: fehlend

Wetterbeobachtungen und Prognosen von mehr als 4000 Flughäfen (METAR und TAF Bericht).

Die verfügbaren Stationen werden durch gelbe und rote Markierungen auf der Karte dargestellt.

Führen Sie die Maus auf sie, um den Namen der Station zu sehen.

Darauf klicken, um die Beobachtung von Wetterbeobachtungen und Prognosen zu sehen.

Um die Karte zu ändern : klicken Sie auf den grünen Tasten mit einem schwarzen Kreuz Zum Vergrößern, auf den grünen Button mit einem Gedankenstrich zu verkleinern, oder auf die grünen Pfeile für benachbarte Karten.


METAR-TAF: